sensor_id;sensor_type;location;lat;lon;timestamp;P1;durP1;ratioP1;P2;durP2;ratioP2
76290;SDS011;65100;46.884;17.410;2024-03-25T00:00:12;6.95;;;3.42;;
76290;SDS011;65100;46.884;17.410;2024-03-25T00:02:39;6.68;;;3.35;;
76290;SDS011;65100;46.884;17.410;2024-03-25T00:05:05;6.63;;;3.57;;
76290;SDS011;65100;46.884;17.410;2024-03-25T00:07:34;6.15;;;2.67;;
76290;SDS011;65100;46.884;17.410;2024-03-25T00:10:00;7.22;;;3.50;;
76290;SDS011;65100;46.884;17.410;2024-03-25T00:12:25;6.30;;;3.63;;
76290;SDS011;65100;46.884;17.410;2024-03-25T00:14:51;5.93;;;2.90;;
76290;SDS011;65100;46.884;17.410;2024-03-25T00:17:17;5.97;;;3.13;;
76290;SDS011;65100;46.884;17.410;2024-03-25T00:19:42;6.60;;;3.75;;
76290;SDS011;65100;46.884;17.410;2024-03-25T00:22:08;6.50;;;2.97;;
76290;SDS011;65100;46.884;17.410;2024-03-25T00:24:33;6.22;;;2.90;;
76290;SDS011;65100;46.884;17.410;2024-03-25T00:26:59;5.80;;;2.43;;
76290;SDS011;65100;46.884;17.410;2024-03-25T00:29:24;6.20;;;2.70;;
76290;SDS011;65100;46.884;17.410;2024-03-25T00:31:50;6.03;;;2.67;;
76290;SDS011;65100;46.884;17.410;2024-03-25T00:34:15;7.27;;;3.60;;
76290;SDS011;65100;46.884;17.410;2024-03-25T00:36:40;5.70;;;2.90;;
76290;SDS011;65100;46.884;17.410;2024-03-25T00:39:06;6.50;;;3.10;;
76290;SDS011;65100;46.884;17.410;2024-03-25T00:41:32;6.82;;;3.33;;
76290;SDS011;65100;46.884;17.410;2024-03-25T00:43:58;5.97;;;3.07;;
76290;SDS011;65100;46.884;17.410;2024-03-25T00:46:23;5.80;;;2.87;;
76290;SDS011;65100;46.884;17.410;2024-03-25T00:48:48;6.28;;;2.55;;
76290;SDS011;65100;46.884;17.410;2024-03-25T00:51:14;5.80;;;2.57;;
76290;SDS011;65100;46.884;17.410;2024-03-25T00:53:39;6.07;;;2.93;;
76290;SDS011;65100;46.884;17.410;2024-03-25T00:56:05;5.63;;;2.47;;
76290;SDS011;65100;46.884;17.410;2024-03-25T00:58:30;5.90;;;2.43;;
76290;SDS011;65100;46.884;17.410;2024-03-25T01:00:56;6.00;;;2.57;;
76290;SDS011;65100;46.884;17.410;2024-03-25T01:03:21;5.40;;;3.20;;
76290;SDS011;65100;46.884;17.410;2024-03-25T01:05:47;6.00;;;2.93;;
76290;SDS011;65100;46.884;17.410;2024-03-25T01:08:13;5.43;;;2.90;;
76290;SDS011;65100;46.884;17.410;2024-03-25T01:10:39;6.50;;;3.40;;
76290;SDS011;65100;46.884;17.410;2024-03-25T01:13:05;5.80;;;2.90;;
76290;SDS011;65100;46.884;17.410;2024-03-25T01:15:30;5.53;;;2.60;;
76290;SDS011;65100;46.884;17.410;2024-03-25T01:17:56;5.33;;;2.70;;
76290;SDS011;65100;46.884;17.410;2024-03-25T01:20:21;5.60;;;2.85;;
76290;SDS011;65100;46.884;17.410;2024-03-25T01:22:47;6.07;;;3.17;;
76290;SDS011;65100;46.884;17.410;2024-03-25T01:25:12;5.23;;;2.63;;
76290;SDS011;65100;46.884;17.410;2024-03-25T01:27:38;6.70;;;3.40;;
76290;SDS011;65100;46.884;17.410;2024-03-25T01:30:03;8.30;;;3.57;;
76290;SDS011;65100;46.884;17.410;2024-03-25T01:32:29;7.85;;;3.88;;
76290;SDS011;65100;46.884;17.410;2024-03-25T01:34:55;8.05;;;3.53;;
76290;SDS011;65100;46.884;17.410;2024-03-25T01:37:21;8.53;;;4.40;;
76290;SDS011;65100;46.884;17.410;2024-03-25T01:39:46;8.47;;;4.13;;
76290;SDS011;65100;46.884;17.410;2024-03-25T01:42:13;8.30;;;4.63;;
76290;SDS011;65100;46.884;17.410;2024-03-25T01:44:38;7.18;;;3.35;;
76290;SDS011;65100;46.884;17.410;2024-03-25T01:47:04;6.67;;;3.70;;
76290;SDS011;65100;46.884;17.410;2024-03-25T01:49:29;7.03;;;3.30;;
76290;SDS011;65100;46.884;17.410;2024-03-25T01:51:55;8.13;;;4.10;;
76290;SDS011;65100;46.884;17.410;2024-03-25T01:54:21;6.65;;;3.35;;
76290;SDS011;65100;46.884;17.410;2024-03-25T01:56:46;7.53;;;3.80;;
76290;SDS011;65100;46.884;17.410;2024-03-25T01:59:13;6.82;;;3.03;;
76290;SDS011;65100;46.884;17.410;2024-03-25T02:01:41;7.65;;;4.00;;
76290;SDS011;65100;46.884;17.410;2024-03-25T02:04:08;7.68;;;3.70;;
76290;SDS011;65100;46.884;17.410;2024-03-25T02:06:34;8.70;;;4.40;;
76290;SDS011;65100;46.884;17.410;2024-03-25T02:09:01;7.10;;;3.60;;
76290;SDS011;65100;46.884;17.410;2024-03-25T02:11:28;7.88;;;3.50;;
76290;SDS011;65100;46.884;17.410;2024-03-25T02:13:54;7.30;;;3.33;;
76290;SDS011;65100;46.884;17.410;2024-03-25T02:16:20;5.83;;;2.67;;
76290;SDS011;65100;46.884;17.410;2024-03-25T02:18:45;7.03;;;3.50;;
76290;SDS011;65100;46.884;17.410;2024-03-25T02:21:11;7.37;;;3.67;;
76290;SDS011;65100;46.884;17.410;2024-03-25T02:23:37;6.87;;;2.70;;
76290;SDS011;65100;46.884;17.410;2024-03-25T02:26:06;6.82;;;3.05;;
76290;SDS011;65100;46.884;17.410;2024-03-25T02:28:32;6.90;;;3.13;;
76290;SDS011;65100;46.884;17.410;2024-03-25T02:30:57;7.60;;;3.97;;
76290;SDS011;65100;46.884;17.410;2024-03-25T02:33:23;7.90;;;3.40;;
76290;SDS011;65100;46.884;17.410;2024-03-25T02:35:48;6.43;;;3.00;;
76290;SDS011;65100;46.884;17.410;2024-03-25T02:38:14;8.30;;;4.23;;
76290;SDS011;65100;46.884;17.410;2024-03-25T02:40:42;6.88;;;3.15;;
76290;SDS011;65100;46.884;17.410;2024-03-25T02:43:09;5.83;;;2.67;;
76290;SDS011;65100;46.884;17.410;2024-03-25T02:45:35;7.93;;;3.90;;
76290;SDS011;65100;46.884;17.410;2024-03-25T02:48:01;8.43;;;3.50;;
76290;SDS011;65100;46.884;17.410;2024-03-25T02:50:26;7.70;;;4.10;;
76290;SDS011;65100;46.884;17.410;2024-03-25T02:52:52;6.93;;;4.20;;
76290;SDS011;65100;46.884;17.410;2024-03-25T02:55:18;8.23;;;4.03;;
76290;SDS011;65100;46.884;17.410;2024-03-25T02:57:43;7.30;;;3.65;;
76290;SDS011;65100;46.884;17.410;2024-03-25T03:00:09;7.23;;;3.20;;
76290;SDS011;65100;46.884;17.410;2024-03-25T03:02:35;8.25;;;4.30;;
76290;SDS011;65100;46.884;17.410;2024-03-25T03:05:00;7.80;;;4.13;;
76290;SDS011;65100;46.884;17.410;2024-03-25T03:07:27;8.98;;;4.30;;
76290;SDS011;65100;46.884;17.410;2024-03-25T03:09:53;8.30;;;4.90;;
76290;SDS011;65100;46.884;17.410;2024-03-25T03:12:18;8.73;;;4.33;;
76290;SDS011;65100;46.884;17.410;2024-03-25T03:14:44;7.85;;;4.22;;
76290;SDS011;65100;46.884;17.410;2024-03-25T03:17:09;7.97;;;3.97;;
76290;SDS011;65100;46.884;17.410;2024-03-25T03:19:34;7.50;;;3.63;;
76290;SDS011;65100;46.884;17.410;2024-03-25T03:22:00;6.80;;;3.70;;
76290;SDS011;65100;46.884;17.410;2024-03-25T03:24:25;6.83;;;3.60;;
76290;SDS011;65100;46.884;17.410;2024-03-25T03:26:51;7.70;;;3.67;;
76290;SDS011;65100;46.884;17.410;2024-03-25T03:29:16;7.53;;;4.22;;
76290;SDS011;65100;46.884;17.410;2024-03-25T03:31:43;8.47;;;3.93;;
76290;SDS011;65100;46.884;17.410;2024-03-25T03:34:09;7.95;;;3.63;;
76290;SDS011;65100;46.884;17.410;2024-03-25T03:36:34;7.20;;;3.67;;
76290;SDS011;65100;46.884;17.410;2024-03-25T03:38:59;8.27;;;4.47;;
76290;SDS011;65100;46.884;17.410;2024-03-25T03:41:25;9.23;;;3.60;;
76290;SDS011;65100;46.884;17.410;2024-03-25T03:43:50;7.93;;;4.10;;
76290;SDS011;65100;46.884;17.410;2024-03-25T03:46:16;8.90;;;4.03;;
76290;SDS011;65100;46.884;17.410;2024-03-25T03:48:41;8.65;;;4.32;;
76290;SDS011;65100;46.884;17.410;2024-03-25T03:51:07;8.77;;;3.80;;
76290;SDS011;65100;46.884;17.410;2024-03-25T03:53:33;9.40;;;3.80;;
76290;SDS011;65100;46.884;17.410;2024-03-25T03:56:00;7.88;;;3.70;;
76290;SDS011;65100;46.884;17.410;2024-03-25T03:58:27;8.37;;;3.33;;
76290;SDS011;65100;46.884;17.410;2024-03-25T04:00:53;7.65;;;3.50;;
76290;SDS011;65100;46.884;17.410;2024-03-25T04:03:19;7.70;;;4.32;;
76290;SDS011;65100;46.884;17.410;2024-03-25T04:05:45;7.15;;;3.85;;
76290;SDS011;65100;46.884;17.410;2024-03-25T04:08:10;7.60;;;4.50;;
76290;SDS011;65100;46.884;17.410;2024-03-25T04:10:36;9.07;;;3.57;;
76290;SDS011;65100;46.884;17.410;2024-03-25T04:13:03;7.13;;;3.50;;
76290;SDS011;65100;46.884;17.410;2024-03-25T04:15:29;6.93;;;3.42;;
76290;SDS011;65100;46.884;17.410;2024-03-25T04:17:54;6.93;;;3.40;;
76290;SDS011;65100;46.884;17.410;2024-03-25T04:20:20;9.02;;;3.75;;
76290;SDS011;65100;46.884;17.410;2024-03-25T04:22:45;7.50;;;3.77;;
76290;SDS011;65100;46.884;17.410;2024-03-25T04:25:12;7.05;;;3.90;;
76290;SDS011;65100;46.884;17.410;2024-03-25T04:27:39;8.15;;;3.90;;
76290;SDS011;65100;46.884;17.410;2024-03-25T04:30:08;6.60;;;3.33;;
76290;SDS011;65100;46.884;17.410;2024-03-25T04:32:35;6.78;;;3.65;;
76290;SDS011;65100;46.884;17.410;2024-03-25T04:35:01;7.43;;;3.70;;
76290;SDS011;65100;46.884;17.410;2024-03-25T04:37:28;7.28;;;3.85;;
76290;SDS011;65100;46.884;17.410;2024-03-25T04:39:54;8.77;;;3.83;;
76290;SDS011;65100;46.884;17.410;2024-03-25T04:42:19;7.83;;;3.97;;
76290;SDS011;65100;46.884;17.410;2024-03-25T04:44:46;8.25;;;4.43;;
76290;SDS011;65100;46.884;17.410;2024-03-25T04:47:11;6.83;;;3.83;;
76290;SDS011;65100;46.884;17.410;2024-03-25T04:49:37;6.63;;;3.30;;
76290;SDS011;65100;46.884;17.410;2024-03-25T04:52:03;9.57;;;3.77;;
76290;SDS011;65100;46.884;17.410;2024-03-25T04:54:29;8.35;;;4.18;;
76290;SDS011;65100;46.884;17.410;2024-03-25T04:56:55;8.87;;;3.97;;
76290;SDS011;65100;46.884;17.410;2024-03-25T04:59:21;8.00;;;4.13;;
76290;SDS011;65100;46.884;17.410;2024-03-25T05:01:46;7.10;;;3.55;;
76290;SDS011;65100;46.884;17.410;2024-03-25T05:04:12;10.67;;;4.20;;
76290;SDS011;65100;46.884;17.410;2024-03-25T05:06:38;7.70;;;4.30;;
76290;SDS011;65100;46.884;17.410;2024-03-25T05:09:03;8.13;;;4.20;;
76290;SDS011;65100;46.884;17.410;2024-03-25T05:11:31;7.03;;;4.13;;
76290;SDS011;65100;46.884;17.410;2024-03-25T05:13:56;7.27;;;3.13;;
76290;SDS011;65100;46.884;17.410;2024-03-25T05:16:22;6.25;;;2.95;;
76290;SDS011;65100;46.884;17.410;2024-03-25T05:18:47;7.27;;;3.23;;
76290;SDS011;65100;46.884;17.410;2024-03-25T05:21:13;7.30;;;3.78;;
76290;SDS011;65100;46.884;17.410;2024-03-25T05:23:38;6.40;;;3.17;;
76290;SDS011;65100;46.884;17.410;2024-03-25T05:26:04;6.80;;;3.60;;
76290;SDS011;65100;46.884;17.410;2024-03-25T05:28:29;7.67;;;4.13;;
76290;SDS011;65100;46.884;17.410;2024-03-25T05:30:55;6.75;;;3.30;;
76290;SDS011;65100;46.884;17.410;2024-03-25T05:33:20;7.43;;;3.53;;
76290;SDS011;65100;46.884;17.410;2024-03-25T05:35:46;7.37;;;4.00;;
76290;SDS011;65100;46.884;17.410;2024-03-25T05:38:11;14.27;;;7.57;;
76290;SDS011;65100;46.884;17.410;2024-03-25T05:40:36;13.57;;;7.27;;
76290;SDS011;65100;46.884;17.410;2024-03-25T05:43:02;8.00;;;4.73;;
76290;SDS011;65100;46.884;17.410;2024-03-25T05:45:27;7.00;;;3.40;;
76290;SDS011;65100;46.884;17.410;2024-03-25T05:47:53;7.78;;;3.30;;
76290;SDS011;65100;46.884;17.410;2024-03-25T05:50:18;9.17;;;4.87;;
76290;SDS011;65100;46.884;17.410;2024-03-25T05:52:44;9.83;;;4.60;;
76290;SDS011;65100;46.884;17.410;2024-03-25T05:55:09;16.60;;;9.20;;
76290;SDS011;65100;46.884;17.410;2024-03-25T05:57:35;12.40;;;6.75;;
76290;SDS011;65100;46.884;17.410;2024-03-25T06:00:01;12.90;;;6.40;;
76290;SDS011;65100;46.884;17.410;2024-03-25T06:02:28;11.38;;;6.00;;
76290;SDS011;65100;46.884;17.410;2024-03-25T06:04:53;11.10;;;6.03;;
76290;SDS011;65100;46.884;17.410;2024-03-25T06:07:19;12.00;;;7.17;;
76290;SDS011;65100;46.884;17.410;2024-03-25T06:09:44;11.83;;;7.20;;
76290;SDS011;65100;46.884;17.410;2024-03-25T06:12:10;13.27;;;6.82;;
76290;SDS011;65100;46.884;17.410;2024-03-25T06:14:35;11.83;;;6.30;;
76290;SDS011;65100;46.884;17.410;2024-03-25T06:17:00;11.90;;;6.13;;
76290;SDS011;65100;46.884;17.410;2024-03-25T06:19:26;11.53;;;7.00;;
76290;SDS011;65100;46.884;17.410;2024-03-25T06:21:51;15.18;;;7.80;;
76290;SDS011;65100;46.884;17.410;2024-03-25T06:24:17;14.57;;;7.00;;
76290;SDS011;65100;46.884;17.410;2024-03-25T06:26:42;14.57;;;6.13;;
76290;SDS011;65100;46.884;17.410;2024-03-25T06:29:07;13.50;;;6.90;;
76290;SDS011;65100;46.884;17.410;2024-03-25T06:31:33;12.10;;;6.03;;
76290;SDS011;65100;46.884;17.410;2024-03-25T06:34:17;13.52;;;6.60;;
76290;SDS011;65100;46.884;17.410;2024-03-25T06:36:43;13.03;;;7.47;;
76290;SDS011;65100;46.884;17.410;2024-03-25T06:39:09;11.38;;;6.10;;
76290;SDS011;65100;46.884;17.410;2024-03-25T06:41:36;11.82;;;6.68;;
76290;SDS011;65100;46.884;17.410;2024-03-25T06:44:02;9.50;;;5.47;;
76290;SDS011;65100;46.884;17.410;2024-03-25T06:46:27;9.40;;;5.23;;
76290;SDS011;65100;46.884;17.410;2024-03-25T06:48:53;11.27;;;6.35;;
76290;SDS011;65100;46.884;17.410;2024-03-25T06:51:18;12.47;;;6.00;;
76290;SDS011;65100;46.884;17.410;2024-03-25T06:53:44;10.63;;;5.80;;
76290;SDS011;65100;46.884;17.410;2024-03-25T06:56:10;11.97;;;6.03;;
76290;SDS011;65100;46.884;17.410;2024-03-25T06:58:35;11.57;;;5.80;;
76290;SDS011;65100;46.884;17.410;2024-03-25T07:01:07;10.35;;;5.50;;
76290;SDS011;65100;46.884;17.410;2024-03-25T07:03:34;11.02;;;5.43;;
76290;SDS011;65100;46.884;17.410;2024-03-25T07:06:00;11.98;;;5.82;;
76290;SDS011;65100;46.884;17.410;2024-03-25T07:08:27;12.10;;;5.80;;
76290;SDS011;65100;46.884;17.410;2024-03-25T07:10:53;10.75;;;5.53;;
76290;SDS011;65100;46.884;17.410;2024-03-25T07:13:19;10.73;;;5.90;;
76290;SDS011;65100;46.884;17.410;2024-03-25T07:15:44;11.18;;;5.53;;
76290;SDS011;65100;46.884;17.410;2024-03-25T07:18:10;8.97;;;4.40;;
76290;SDS011;65100;46.884;17.410;2024-03-25T07:20:38;8.55;;;4.40;;
76290;SDS011;65100;46.884;17.410;2024-03-25T07:23:04;9.43;;;4.30;;
76290;SDS011;65100;46.884;17.410;2024-03-25T07:25:29;8.63;;;4.10;;
76290;SDS011;65100;46.884;17.410;2024-03-25T07:27:55;6.72;;;3.20;;
76290;SDS011;65100;46.884;17.410;2024-03-25T07:30:21;7.70;;;3.90;;
76290;SDS011;65100;46.884;17.410;2024-03-25T07:32:53;8.15;;;3.70;;
76290;SDS011;65100;46.884;17.410;2024-03-25T07:35:22;6.60;;;3.20;;
76290;SDS011;65100;46.884;17.410;2024-03-25T07:37:48;7.47;;;3.53;;
76290;SDS011;65100;46.884;17.410;2024-03-25T07:40:16;6.63;;;3.08;;
76290;SDS011;65100;46.884;17.410;2024-03-25T07:42:42;6.45;;;3.35;;
76290;SDS011;65100;46.884;17.410;2024-03-25T07:45:08;6.20;;;3.00;;
76290;SDS011;65100;46.884;17.410;2024-03-25T07:47:34;6.97;;;2.90;;
76290;SDS011;65100;46.884;17.410;2024-03-25T07:50:00;5.93;;;3.20;;
76290;SDS011;65100;46.884;17.410;2024-03-25T07:52:26;6.63;;;3.30;;
76290;SDS011;65100;46.884;17.410;2024-03-25T07:54:52;6.50;;;3.05;;
76290;SDS011;65100;46.884;17.410;2024-03-25T07:57:17;6.37;;;3.10;;
76290;SDS011;65100;46.884;17.410;2024-03-25T07:59:44;6.20;;;2.70;;
76290;SDS011;65100;46.884;17.410;2024-03-25T08:02:10;6.23;;;3.10;;
76290;SDS011;65100;46.884;17.410;2024-03-25T08:04:35;6.78;;;3.00;;
76290;SDS011;65100;46.884;17.410;2024-03-25T08:07:01;6.43;;;2.67;;
76290;SDS011;65100;46.884;17.410;2024-03-25T08:09:27;6.53;;;3.20;;
76290;SDS011;65100;46.884;17.410;2024-03-25T08:11:53;6.87;;;2.90;;
76290;SDS011;65100;46.884;17.410;2024-03-25T08:14:18;6.05;;;3.00;;
76290;SDS011;65100;46.884;17.410;2024-03-25T08:16:44;5.53;;;2.90;;
76290;SDS011;65100;46.884;17.410;2024-03-25T08:19:09;6.30;;;3.17;;
76290;SDS011;65100;46.884;17.410;2024-03-25T08:21:35;6.17;;;2.90;;
76290;SDS011;65100;46.884;17.410;2024-03-25T08:24:00;6.43;;;3.00;;
76290;SDS011;65100;46.884;17.410;2024-03-25T08:26:26;6.00;;;2.73;;
76290;SDS011;65100;46.884;17.410;2024-03-25T08:28:51;5.53;;;2.67;;
76290;SDS011;65100;46.884;17.410;2024-03-25T08:31:16;5.90;;;2.60;;
76290;SDS011;65100;46.884;17.410;2024-03-25T08:33:42;7.53;;;2.90;;
76290;SDS011;65100;46.884;17.410;2024-03-25T08:36:07;6.53;;;3.00;;
76290;SDS011;65100;46.884;17.410;2024-03-25T08:38:33;6.30;;;2.67;;
76290;SDS011;65100;46.884;17.410;2024-03-25T08:40:59;6.70;;;2.80;;
76290;SDS011;65100;46.884;17.410;2024-03-25T08:43:24;5.32;;;2.55;;
76290;SDS011;65100;46.884;17.410;2024-03-25T08:45:50;7.33;;;2.50;;
76290;SDS011;65100;46.884;17.410;2024-03-25T08:48:16;7.32;;;2.42;;
76290;SDS011;65100;46.884;17.410;2024-03-25T08:50:42;6.00;;;2.30;;
76290;SDS011;65100;46.884;17.410;2024-03-25T08:53:07;5.63;;;2.50;;
76290;SDS011;65100;46.884;17.410;2024-03-25T08:55:33;6.13;;;2.50;;
76290;SDS011;65100;46.884;17.410;2024-03-25T08:57:59;7.15;;;2.63;;
76290;SDS011;65100;46.884;17.410;2024-03-25T09:00:25;6.33;;;2.50;;
76290;SDS011;65100;46.884;17.410;2024-03-25T09:02:51;6.35;;;2.40;;
76290;SDS011;65100;46.884;17.410;2024-03-25T09:05:16;4.93;;;2.20;;
76290;SDS011;65100;46.884;17.410;2024-03-25T09:07:43;4.65;;;2.00;;
76290;SDS011;65100;46.884;17.410;2024-03-25T09:10:10;3.75;;;1.65;;
76290;SDS011;65100;46.884;17.410;2024-03-25T09:12:54;4.22;;;1.92;;
76290;SDS011;65100;46.884;17.410;2024-03-25T09:15:19;4.03;;;1.80;;
76290;SDS011;65100;46.884;17.410;2024-03-25T09:17:44;4.07;;;1.80;;
76290;SDS011;65100;46.884;17.410;2024-03-25T09:20:10;4.20;;;1.80;;
76290;SDS011;65100;46.884;17.410;2024-03-25T09:22:44;4.10;;;1.60;;
76290;SDS011;65100;46.884;17.410;2024-03-25T09:25:12;4.70;;;1.93;;
76290;SDS011;65100;46.884;17.410;2024-03-25T09:27:50;5.35;;;1.80;;
76290;SDS011;65100;46.884;17.410;2024-03-25T09:30:16;4.20;;;1.90;;
76290;SDS011;65100;46.884;17.410;2024-03-25T09:32:45;3.58;;;1.60;;
76290;SDS011;65100;46.884;17.410;2024-03-25T09:35:11;5.57;;;2.27;;
76290;SDS011;65100;46.884;17.410;2024-03-25T09:37:37;5.47;;;2.28;;
76290;SDS011;65100;46.884;17.410;2024-03-25T09:40:03;5.80;;;2.50;;
76290;SDS011;65100;46.884;17.410;2024-03-25T09:45:15;4.60;;;1.90;;
76290;SDS011;65100;46.884;17.410;2024-03-25T09:47:43;5.97;;;2.60;;
76290;SDS011;65100;46.884;17.410;2024-03-25T09:50:12;5.15;;;2.08;;
76290;SDS011;65100;46.884;17.410;2024-03-25T09:52:41;4.88;;;1.90;;
76290;SDS011;65100;46.884;17.410;2024-03-25T09:55:07;3.90;;;1.70;;
76290;SDS011;65100;46.884;17.410;2024-03-25T09:57:34;4.40;;;1.80;;
76290;SDS011;65100;46.884;17.410;2024-03-25T10:00:06;4.63;;;2.00;;
76290;SDS011;65100;46.884;17.410;2024-03-25T10:02:37;6.25;;;2.40;;
76290;SDS011;65100;46.884;17.410;2024-03-25T10:05:04;5.67;;;2.40;;
76290;SDS011;65100;46.884;17.410;2024-03-25T10:07:30;5.13;;;2.00;;
76290;SDS011;65100;46.884;17.410;2024-03-25T10:09:56;4.47;;;2.08;;
76290;SDS011;65100;46.884;17.410;2024-03-25T10:12:23;4.75;;;1.98;;
76290;SDS011;65100;46.884;17.410;2024-03-25T10:14:49;5.00;;;2.03;;
76290;SDS011;65100;46.884;17.410;2024-03-25T10:17:14;3.97;;;1.80;;
76290;SDS011;65100;46.884;17.410;2024-03-25T10:19:40;5.50;;;1.75;;
76290;SDS011;65100;46.884;17.410;2024-03-25T10:22:06;4.40;;;1.95;;
76290;SDS011;65100;46.884;17.410;2024-03-25T10:24:36;4.38;;;1.88;;
76290;SDS011;65100;46.884;17.410;2024-03-25T10:27:10;3.57;;;1.60;;
76290;SDS011;65100;46.884;17.410;2024-03-25T10:29:47;4.57;;;1.95;;
76290;SDS011;65100;46.884;17.410;2024-03-25T10:32:14;4.45;;;1.90;;
76290;SDS011;65100;46.884;17.410;2024-03-25T10:34:40;4.25;;;1.42;;
76290;SDS011;65100;46.884;17.410;2024-03-25T10:37:08;4.53;;;1.60;;
76290;SDS011;65100;46.884;17.410;2024-03-25T10:39:35;4.27;;;1.70;;
76290;SDS011;65100;46.884;17.410;2024-03-25T10:42:08;5.35;;;2.10;;
76290;SDS011;65100;46.884;17.410;2024-03-25T10:44:39;5.25;;;2.00;;
76290;SDS011;65100;46.884;17.410;2024-03-25T10:47:06;5.20;;;1.90;;
76290;SDS011;65100;46.884;17.410;2024-03-25T10:49:34;5.25;;;1.80;;
76290;SDS011;65100;46.884;17.410;2024-03-25T10:52:05;4.40;;;1.60;;
76290;SDS011;65100;46.884;17.410;2024-03-25T10:54:32;3.40;;;1.52;;
76290;SDS011;65100;46.884;17.410;2024-03-25T10:56:58;4.78;;;1.80;;
76290;SDS011;65100;46.884;17.410;2024-03-25T10:59:28;4.15;;;1.60;;
76290;SDS011;65100;46.884;17.410;2024-03-25T11:01:55;4.55;;;1.83;;
76290;SDS011;65100;46.884;17.410;2024-03-25T11:04:21;4.10;;;1.70;;
76290;SDS011;65100;46.884;17.410;2024-03-25T11:06:48;4.53;;;1.70;;
76290;SDS011;65100;46.884;17.410;2024-03-25T11:09:25;4.97;;;1.80;;
76290;SDS011;65100;46.884;17.410;2024-03-25T11:11:51;3.97;;;1.65;;
76290;SDS011;65100;46.884;17.410;2024-03-25T11:14:18;4.38;;;1.90;;
76290;SDS011;65100;46.884;17.410;2024-03-25T11:16:43;4.03;;;1.83;;
76290;SDS011;65100;46.884;17.410;2024-03-25T11:19:10;3.10;;;1.48;;
76290;SDS011;65100;46.884;17.410;2024-03-25T11:21:36;3.93;;;1.70;;
76290;SDS011;65100;46.884;17.410;2024-03-25T11:24:07;3.50;;;1.60;;
76290;SDS011;65100;46.884;17.410;2024-03-25T11:26:34;3.72;;;1.70;;
76290;SDS011;65100;46.884;17.410;2024-03-25T11:29:02;3.67;;;1.60;;
76290;SDS011;65100;46.884;17.410;2024-03-25T11:31:30;3.78;;;1.50;;
76290;SDS011;65100;46.884;17.410;2024-03-25T11:34:03;5.78;;;1.70;;
76290;SDS011;65100;46.884;17.410;2024-03-25T11:36:30;4.43;;;1.50;;
76290;SDS011;65100;46.884;17.410;2024-03-25T11:39:02;4.35;;;1.50;;
76290;SDS011;65100;46.884;17.410;2024-03-25T11:41:32;3.58;;;1.50;;
76290;SDS011;65100;46.884;17.410;2024-03-25T11:43:58;3.22;;;1.60;;
76290;SDS011;65100;46.884;17.410;2024-03-25T11:46:26;4.90;;;1.60;;
76290;SDS011;65100;46.884;17.410;2024-03-25T11:48:52;3.40;;;1.38;;
76290;SDS011;65100;46.884;17.410;2024-03-25T11:51:19;4.20;;;2.00;;
76290;SDS011;65100;46.884;17.410;2024-03-25T11:53:45;3.57;;;1.50;;
76290;SDS011;65100;46.884;17.410;2024-03-25T11:56:10;4.28;;;1.50;;
76290;SDS011;65100;46.884;17.410;2024-03-25T11:58:37;3.97;;;1.50;;
76290;SDS011;65100;46.884;17.410;2024-03-25T12:01:03;5.00;;;1.70;;
76290;SDS011;65100;46.884;17.410;2024-03-25T12:03:29;4.35;;;1.50;;
76290;SDS011;65100;46.884;17.410;2024-03-25T12:05:55;3.67;;;1.58;;
76290;SDS011;65100;46.884;17.410;2024-03-25T12:08:21;4.82;;;1.63;;
76290;SDS011;65100;46.884;17.410;2024-03-25T12:10:51;4.20;;;1.70;;
76290;SDS011;65100;46.884;17.410;2024-03-25T12:13:35;3.78;;;1.42;;
76290;SDS011;65100;46.884;17.410;2024-03-25T12:16:05;4.00;;;1.67;;
76290;SDS011;65100;46.884;17.410;2024-03-25T12:18:33;5.88;;;1.80;;
76290;SDS011;65100;46.884;17.410;2024-03-25T12:21:00;4.63;;;1.90;;
76290;SDS011;65100;46.884;17.410;2024-03-25T12:23:29;3.77;;;1.87;;
76290;SDS011;65100;46.884;17.410;2024-03-25T12:25:58;4.85;;;1.80;;
76290;SDS011;65100;46.884;17.410;2024-03-25T12:28:27;3.70;;;1.60;;
76290;SDS011;65100;46.884;17.410;2024-03-25T12:30:53;4.03;;;1.60;;
76290;SDS011;65100;46.884;17.410;2024-03-25T12:33:21;4.13;;;1.70;;
76290;SDS011;65100;46.884;17.410;2024-03-25T12:35:48;4.90;;;1.80;;
76290;SDS011;65100;46.884;17.410;2024-03-25T12:38:27;6.60;;;1.90;;
76290;SDS011;65100;46.884;17.410;2024-03-25T12:41:00;5.18;;;1.73;;
76290;SDS011;65100;46.884;17.410;2024-03-25T12:43:31;4.70;;;1.70;;
76290;SDS011;65100;46.884;17.410;2024-03-25T12:45:57;3.88;;;1.42;;
76290;SDS011;65100;46.884;17.410;2024-03-25T12:48:23;5.43;;;1.70;;
76290;SDS011;65100;46.884;17.410;2024-03-25T12:50:49;4.25;;;1.60;;
76290;SDS011;65100;46.884;17.410;2024-03-25T12:53:17;3.97;;;1.70;;
76290;SDS011;65100;46.884;17.410;2024-03-25T12:55:47;4.57;;;1.80;;
76290;SDS011;65100;46.884;17.410;2024-03-25T12:58:13;4.93;;;1.70;;
76290;SDS011;65100;46.884;17.410;2024-03-25T13:00:39;3.90;;;1.70;;
76290;SDS011;65100;46.884;17.410;2024-03-25T13:03:05;3.73;;;1.60;;
76290;SDS011;65100;46.884;17.410;2024-03-25T13:05:33;4.10;;;1.65;;
76290;SDS011;65100;46.884;17.410;2024-03-25T13:07:59;4.30;;;1.73;;
76290;SDS011;65100;46.884;17.410;2024-03-25T13:10:25;5.43;;;1.95;;
76290;SDS011;65100;46.884;17.410;2024-03-25T13:12:51;4.55;;;1.98;;
76290;SDS011;65100;46.884;17.410;2024-03-25T13:15:17;5.00;;;1.87;;
76290;SDS011;65100;46.884;17.410;2024-03-25T13:17:42;3.97;;;1.83;;
76290;SDS011;65100;46.884;17.410;2024-03-25T13:20:08;3.80;;;1.70;;
76290;SDS011;65100;46.884;17.410;2024-03-25T13:22:34;5.30;;;1.60;;
76290;SDS011;65100;46.884;17.410;2024-03-25T13:25:00;4.05;;;1.65;;
76290;SDS011;65100;46.884;17.410;2024-03-25T13:27:25;4.53;;;1.60;;
76290;SDS011;65100;46.884;17.410;2024-03-25T13:29:51;4.53;;;1.73;;
76290;SDS011;65100;46.884;17.410;2024-03-25T13:32:18;4.65;;;1.60;;
76290;SDS011;65100;46.884;17.410;2024-03-25T13:34:44;6.28;;;2.17;;
76290;SDS011;65100;46.884;17.410;2024-03-25T13:37:09;4.43;;;1.90;;
76290;SDS011;65100;46.884;17.410;2024-03-25T13:39:35;3.97;;;1.80;;
76290;SDS011;65100;46.884;17.410;2024-03-25T13:42:00;3.80;;;1.60;;
76290;SDS011;65100;46.884;17.410;2024-03-25T13:44:27;4.70;;;1.90;;
76290;SDS011;65100;46.884;17.410;2024-03-25T13:46:53;4.53;;;1.70;;
76290;SDS011;65100;46.884;17.410;2024-03-25T13:49:19;4.50;;;1.90;;
76290;SDS011;65100;46.884;17.410;2024-03-25T13:51:45;4.93;;;1.70;;
76290;SDS011;65100;46.884;17.410;2024-03-25T13:54:11;4.20;;;1.60;;
76290;SDS011;65100;46.884;17.410;2024-03-25T13:56:36;5.25;;;1.73;;
76290;SDS011;65100;46.884;17.410;2024-03-25T13:59:02;4.00;;;1.70;;
76290;SDS011;65100;46.884;17.410;2024-03-25T14:01:28;4.50;;;1.95;;
76290;SDS011;65100;46.884;17.410;2024-03-25T14:03:53;3.83;;;1.60;;
76290;SDS011;65100;46.884;17.410;2024-03-25T14:06:19;3.38;;;1.58;;
76290;SDS011;65100;46.884;17.410;2024-03-25T14:08:44;4.37;;;1.57;;
76290;SDS011;65100;46.884;17.410;2024-03-25T14:11:10;3.60;;;1.80;;
76290;SDS011;65100;46.884;17.410;2024-03-25T14:13:35;4.13;;;1.90;;
76290;SDS011;65100;46.884;17.410;2024-03-25T14:16:01;3.77;;;1.80;;
76290;SDS011;65100;46.884;17.410;2024-03-25T14:18:27;3.70;;;1.60;;
76290;SDS011;65100;46.884;17.410;2024-03-25T14:20:52;4.77;;;1.60;;
76290;SDS011;65100;46.884;17.410;2024-03-25T14:23:18;4.00;;;1.70;;
76290;SDS011;65100;46.884;17.410;2024-03-25T14:25:44;3.63;;;1.60;;
76290;SDS011;65100;46.884;17.410;2024-03-25T14:28:10;4.00;;;1.60;;
76290;SDS011;65100;46.884;17.410;2024-03-25T14:30:35;4.07;;;1.80;;